Time;durP1;ratioP1;P1;durP2;ratioP2;P2;SDS_P1;SDS_P2;PMS_P1;PMS_P2;Temp;Humidity;BMP_temperature;BMP_pressure;BME280_temperature;BME280_humidity;BME280_pressure;Samples;Min_cycle;Max_cycle;Signal;HPM_P1;HPM_P2
2022/03/10 00:00:46;;;;;;;;;;;-2.80;92.60;;;;;;5038401;28;19909;-73
2022/03/10 00:03:12;;;;;;;;;;;-2.90;92.20;;;;;;5037963;28;20012;-72
2022/03/10 00:05:37;;;;;;;;;;;-3.10;92.20;;;;;;5038268;28;19910;-72
2022/03/10 00:08:03;;;;;;;;;;;-3.20;92.40;;;;;;5038384;28;19909;-72
2022/03/10 00:10:28;;;;;;;;;;;-3.40;93.40;;;;;;5038328;28;19913;-72
2022/03/10 00:12:54;;;;;;;;;;;-3.20;93.60;;;;;;5038142;28;19909;-72
2022/03/10 00:15:21;;;;;;;;;;;-3.20;93.50;;;;;;5042598;28;19910;-72
2022/03/10 00:17:47;;;;;;;;;;;-3.10;93.50;;;;;;5038193;28;19913;-71
2022/03/10 00:20:12;;;;;;;;;;;-3.00;93.60;;;;;;5053922;28;19909;-72
2022/03/10 00:22:51;;;;;;;;;;;-3.00;93.50;;;;;;5045113;28;19971;-72
2022/03/10 00:25:17;;;;;;;;;;;-3.30;93.20;;;;;;5037900;28;20425;-71
2022/03/10 00:27:42;;;;;;;;;;;-3.50;93.70;;;;;;5037927;28;19959;-72
2022/03/10 00:30:08;;;;;;;;;;;-3.70;94.50;;;;;;5040588;28;19909;-72
2022/03/10 00:32:40;;;;;;;;;;;-3.60;95.80;;;;;;5040686;28;19955;-72
2022/03/10 00:35:05;;;;;;;;;;;-3.50;95.50;;;;;;5036554;28;20051;-72
2022/03/10 00:37:31;;;;;;;;;;;-3.50;95.20;;;;;;5033584;28;19999;-71
2022/03/10 00:39:56;;;;;;;;;;;-3.40;95.20;;;;;;5034808;28;19908;-71
2022/03/10 00:42:22;;;;;;;;;;;-3.40;95.00;;;;;;5034800;28;19919;-71
2022/03/10 00:44:47;;;;;;;;;;;-3.60;95.30;;;;;;5034598;28;19963;-72
2022/03/10 00:47:13;;;;;;;;;;;-3.50;95.30;;;;;;5034801;28;19909;-71
2022/03/10 00:49:38;;;;;;;;;;;-3.50;95.70;;;;;;5043352;28;20020;-72
2022/03/10 00:52:04;;;;;;;;;;;-3.50;94.90;;;;;;5041301;28;20369;-71
2022/03/10 00:54:30;;;;;;;;;;;-3.60;95.60;;;;;;5034468;28;19916;-72
2022/03/10 00:56:55;;;;;;;;;;;-3.70;95.90;;;;;;5034616;28;19909;-71
2022/03/10 00:59:20;;;;;;;;;;;-3.80;95.90;;;;;;5034510;28;19932;-71
2022/03/10 01:01:46;;;;;;;;;;;-3.90;96.30;;;;;;5034407;28;19996;-72
2022/03/10 01:04:11;;;;;;;;;;;-3.60;96.10;;;;;;5034200;28;20385;-72
2022/03/10 01:06:39;;;;;;;;;;;-3.40;95.80;;;;;;5034611;28;19971;-71
2022/03/10 01:09:04;;;;;;;;;;;-3.40;95.30;;;;;;5034272;28;19909;-72
2022/03/10 01:11:30;;;;;;;;;;;-3.40;95.50;;;;;;5034315;28;19932;-72
2022/03/10 01:13:55;;;;;;;;;;;-3.70;96.00;;;;;;5034035;28;20377;-71
2022/03/10 01:16:21;;;;;;;;;;;-3.80;96.60;;;;;;5034166;28;19921;-72
2022/03/10 01:18:46;;;;;;;;;;;-3.70;96.10;;;;;;5034062;28;19952;-71
2022/03/10 01:21:12;;;;;;;;;;;-3.40;95.30;;;;;;5044938;28;19913;-72
2022/03/10 01:23:37;;;;;;;;;;;-3.30;95.10;;;;;;5034018;28;19909;-71
2022/03/10 01:26:03;;;;;;;;;;;-3.40;95.30;;;;;;5034076;28;19936;-72
2022/03/10 01:28:28;;;;;;;;;;;-3.60;96.00;;;;;;5034284;28;19996;-72
2022/03/10 01:30:54;;;;;;;;;;;-3.60;96.70;;;;;;5034086;28;19913;-72
2022/03/10 01:33:19;;;;;;;;;;;-3.80;96.60;;;;;;5034010;28;19909;-72
2022/03/10 01:35:45;;;;;;;;;;;-3.90;96.80;;;;;;5033954;28;19955;-72
2022/03/10 01:38:10;;;;;;;;;;;-4.00;97.90;;;;;;5033769;28;19909;-72
2022/03/10 01:40:36;;;;;;;;;;;-3.70;97.50;;;;;;5033829;28;19959;-72
2022/03/10 01:43:01;;;;;;;;;;;-3.40;96.50;;;;;;5033990;28;19923;-71
2022/03/10 01:45:28;;;;;;;;;;;-3.70;96.70;;;;;;5034040;28;19910;-72
2022/03/10 01:47:53;;;;;;;;;;;-3.90;97.50;;;;;;5032367;28;20366;-72
2022/03/10 01:50:19;;;;;;;;;;;-4.10;98.60;;;;;;5035719;28;19909;-72
2022/03/10 01:52:45;;;;;;;;;;;-4.10;98.60;;;;;;5042568;28;19917;-71
2022/03/10 01:55:11;;;;;;;;;;;-4.20;99.60;;;;;;5033344;28;19909;-72
2022/03/10 01:57:36;;;;;;;;;;;-4.20;99.50;;;;;;5033517;28;19909;-71
2022/03/10 02:00:03;;;;;;;;;;;-4.20;99.90;;;;;;5032446;28;20616;-72
2022/03/10 02:02:28;;;;;;;;;;;-4.20;99.80;;;;;;5033678;28;19917;-72
2022/03/10 02:04:53;;;;;;;;;;;-4.20;99.90;;;;;;5033133;28;19955;-71
2022/03/10 02:10:18;;;;;;;;;;;-4.10;99.90;;;;;;5033526;28;19915;-72
2022/03/10 02:12:48;;;;;;;;;;;-4.10;99.90;;;;;;5051129;28;20365;-72
2022/03/10 02:18:04;;;;;;;;;;;-4.20;99.90;;;;;;5052988;28;19921;-72
2022/03/10 02:20:29;;;;;;;;;;;-4.20;99.90;;;;;;5048763;28;19982;-72
2022/03/10 02:22:55;;;;;;;;;;;-4.20;99.90;;;;;;5051907;28;20424;-72
2022/03/10 02:25:22;;;;;;;;;;;-4.10;99.90;;;;;;5052038;28;20357;-71
2022/03/10 02:27:49;;;;;;;;;;;-4.10;99.90;;;;;;5051998;28;20392;-71
2022/03/10 02:30:15;;;;;;;;;;;-4.00;99.90;;;;;;5052076;28;19962;-72
2022/03/10 02:32:40;;;;;;;;;;;-4.00;99.90;;;;;;5051892;28;19913;-72
2022/03/10 02:35:06;;;;;;;;;;;-4.00;99.90;;;;;;5051629;28;19916;-72
2022/03/10 02:37:31;;;;;;;;;;;-4.00;99.90;;;;;;5051753;28;19913;-72
2022/03/10 02:39:57;;;;;;;;;;;-4.20;99.90;;;;;;5044782;28;19984;-72
2022/03/10 02:42:22;;;;;;;;;;;-4.30;99.90;;;;;;5044278;28;20361;-72
2022/03/10 02:44:48;;;;;;;;;;;-4.00;99.90;;;;;;5032515;28;19909;-71
2022/03/10 02:47:14;;;;;;;;;;;-3.70;99.90;;;;;;5032602;28;19932;-72
2022/03/10 02:49:41;;;;;;;;;;;-3.70;99.90;;;;;;5038894;28;19916;-72
2022/03/10 02:52:06;;;;;;;;;;;-3.70;99.60;;;;;;5043280;28;19909;-72
2022/03/10 02:54:32;;;;;;;;;;;-3.90;99.90;;;;;;5032189;28;19919;-72
2022/03/10 02:56:58;;;;;;;;;;;-3.90;99.90;;;;;;5032394;28;19979;-72
2022/03/10 02:59:23;;;;;;;;;;;-4.00;99.90;;;;;;5031910;28;19909;-71
2022/03/10 03:01:49;;;;;;;;;;;-4.10;99.90;;;;;;5032218;28;19959;-72
2022/03/10 03:04:15;;;;;;;;;;;-4.30;99.90;;;;;;5032121;28;19909;-72
2022/03/10 03:06:41;;;;;;;;;;;-4.20;99.90;;;;;;5031034;28;19916;-71
2022/03/10 03:09:06;;;;;;;;;;;-4.10;99.90;;;;;;5032157;28;19940;-71
2022/03/10 03:11:32;;;;;;;;;;;-4.20;99.90;;;;;;5032172;28;19920;-71
2022/03/10 03:13:57;;;;;;;;;;;-4.30;99.90;;;;;;5031993;28;19909;-71
2022/03/10 03:16:24;;;;;;;;;;;-4.40;99.90;;;;;;5032172;28;19956;-72
2022/03/10 03:18:50;;;;;;;;;;;-4.50;99.90;;;;;;5030750;28;19909;-71
2022/03/10 03:21:16;;;;;;;;;;;-4.60;99.90;;;;;;5040005;28;20405;-71
2022/03/10 03:23:41;;;;;;;;;;;-4.90;99.90;;;;;;5033791;28;19913;-71
2022/03/10 03:26:07;;;;;;;;;;;-4.80;99.90;;;;;;5030497;28;20285;-71
2022/03/10 03:28:32;;;;;;;;;;;-4.80;99.90;;;;;;5032118;28;19909;-71
2022/03/10 03:30:58;;;;;;;;;;;-4.80;99.90;;;;;;5031825;28;19909;-71
2022/03/10 03:33:23;;;;;;;;;;;-4.70;99.90;;;;;;5031776;28;20003;-71
2022/03/10 03:35:49;;;;;;;;;;;-4.50;99.90;;;;;;5031956;28;19913;-71
2022/03/10 03:38:14;;;;;;;;;;;-4.30;99.90;;;;;;5034658;28;19996;-71
2022/03/10 03:40:40;;;;;;;;;;;-4.30;99.90;;;;;;5049843;28;20469;-71
2022/03/10 03:43:06;;;;;;;;;;;-4.40;99.90;;;;;;5050615;28;20327;-71
2022/03/10 03:45:31;;;;;;;;;;;-4.50;99.90;;;;;;5042478;28;19913;-72
2022/03/10 03:47:57;;;;;;;;;;;-4.70;99.90;;;;;;5031867;28;19920;-72
2022/03/10 03:50:22;;;;;;;;;;;-4.80;99.90;;;;;;5039025;28;19940;-72
2022/03/10 03:52:48;;;;;;;;;;;-4.80;99.90;;;;;;5037889;28;19909;-72
2022/03/10 03:55:13;;;;;;;;;;;-4.80;99.90;;;;;;5031611;28;20008;-71
2022/03/10 03:57:39;;;;;;;;;;;-4.80;99.90;;;;;;5031847;28;19909;-72
2022/03/10 04:00:07;;;;;;;;;;;-5.00;99.90;;;;;;5031844;28;19910;-72
2022/03/10 04:02:33;;;;;;;;;;;-5.00;99.90;;;;;;5031615;28;20055;-72
2022/03/10 04:04:58;;;;;;;;;;;-5.10;99.90;;;;;;5031528;28;20350;-72
2022/03/10 04:07:24;;;;;;;;;;;-5.00;99.90;;;;;;5031569;28;20409;-72
2022/03/10 04:09:49;;;;;;;;;;;-4.90;99.90;;;;;;5031746;28;19909;-72
2022/03/10 04:12:15;;;;;;;;;;;-4.80;99.90;;;;;;5034986;28;20274;-71
2022/03/10 04:14:40;;;;;;;;;;;-4.70;99.90;;;;;;5035528;28;19913;-71
2022/03/10 04:17:06;;;;;;;;;;;-4.50;99.90;;;;;;5035244;28;19923;-71
2022/03/10 04:19:31;;;;;;;;;;;-4.50;99.90;;;;;;5040775;28;19913;-71
2022/03/10 04:21:57;;;;;;;;;;;-4.30;99.90;;;;;;5041263;28;19920;-71
2022/03/10 04:24:22;;;;;;;;;;;-4.30;99.90;;;;;;5034890;28;19917;-72
2022/03/10 04:26:48;;;;;;;;;;;-4.40;99.90;;;;;;5035236;28;19909;-71
2022/03/10 04:29:14;;;;;;;;;;;-4.50;99.90;;;;;;5035111;28;19912;-72
2022/03/10 04:31:40;;;;;;;;;;;-4.60;99.90;;;;;;5035031;28;19963;-71
2022/03/10 04:34:05;;;;;;;;;;;-4.70;99.90;;;;;;5035222;28;20055;-71
2022/03/10 04:36:31;;;;;;;;;;;-4.90;99.90;;;;;;5041484;28;19920;-71
2022/03/10 04:38:57;;;;;;;;;;;-4.80;99.90;;;;;;5035989;28;19909;-71
2022/03/10 04:41:22;;;;;;;;;;;-4.50;99.90;;;;;;5034857;28;19933;-71
2022/03/10 04:43:48;;;;;;;;;;;-4.50;99.90;;;;;;5034707;28;19941;-71
2022/03/10 04:46:13;;;;;;;;;;;-4.70;99.90;;;;;;5034934;28;19937;-72
2022/03/10 04:48:39;;;;;;;;;;;-4.90;99.90;;;;;;5037463;28;19995;-72
2022/03/10 04:51:05;;;;;;;;;;;-4.70;99.90;;;;;;5045561;28;19991;-71
2022/03/10 04:53:30;;;;;;;;;;;-4.60;99.90;;;;;;5041195;28;19917;-71
2022/03/10 04:55:56;;;;;;;;;;;-4.80;99.90;;;;;;5034861;28;19909;-71
2022/03/10 04:58:21;;;;;;;;;;;-4.80;99.90;;;;;;5033517;28;20356;-71
2022/03/10 05:00:47;;;;;;;;;;;-5.00;99.90;;;;;;5034708;28;19916;-71
2022/03/10 05:03:13;;;;;;;;;;;-5.00;99.90;;;;;;5034110;28;20378;-72
2022/03/10 05:05:39;;;;;;;;;;;-5.10;99.90;;;;;;5034341;28;20496;-72
2022/03/10 05:08:04;;;;;;;;;;;-5.20;99.90;;;;;;5034396;28;19993;-72
2022/03/10 05:10:30;;;;;;;;;;;-5.30;99.90;;;;;;5034452;28;19913;-71
2022/03/10 05:13:02;;;;;;;;;;;-5.10;99.90;;;;;;5034247;28;19909;-71
2022/03/10 05:15:31;;;;;;;;;;;-5.20;99.90;;;;;;5034046;28;19989;-72
2022/03/10 05:17:56;;;;;;;;;;;-5.30;99.90;;;;;;5034196;28;19936;-71
2022/03/10 05:20:22;;;;;;;;;;;-5.30;99.90;;;;;;5043402;28;19912;-71
2022/03/10 05:22:51;;;;;;;;;;;-5.50;99.90;;;;;;5033712;28;20309;-71
2022/03/10 05:25:18;;;;;;;;;;;-5.60;99.90;;;;;;5033931;28;19952;-71
2022/03/10 05:27:44;;;;;;;;;;;-5.60;99.90;;;;;;5034071;28;19913;-71
2022/03/10 05:30:10;;;;;;;;;;;-5.50;99.90;;;;;;5032841;28;19910;-71
2022/03/10 05:32:36;;;;;;;;;;;-5.50;99.90;;;;;;5034209;28;20285;-71
2022/03/10 05:35:03;;;;;;;;;;;-5.40;99.90;;;;;;5033844;28;19919;-71
2022/03/10 05:37:29;;;;;;;;;;;-5.30;99.90;;;;;;5034004;28;19940;-71
2022/03/10 05:39:54;;;;;;;;;;;-5.30;99.90;;;;;;5033823;28;19963;-71
2022/03/10 05:42:20;;;;;;;;;;;-5.30;99.90;;;;;;5033608;28;19913;-71
2022/03/10 05:44:45;;;;;;;;;;;-5.40;99.90;;;;;;5033486;28;19913;-71
2022/03/10 05:47:11;;;;;;;;;;;-5.30;99.90;;;;;;5033534;28;19948;-71
2022/03/10 05:49:36;;;;;;;;;;;-5.30;99.90;;;;;;5038994;28;19909;-71
2022/03/10 05:52:02;;;;;;;;;;;-5.30;99.90;;;;;;5046198;28;20281;-71
2022/03/10 05:54:28;;;;;;;;;;;-5.30;99.90;;;;;;5033418;28;19909;-71
2022/03/10 05:56:53;;;;;;;;;;;-5.30;99.90;;;;;;5033932;28;19909;-71
2022/03/10 05:59:19;;;;;;;;;;;-5.40;99.90;;;;;;5033510;28;19963;-71
2022/03/10 06:01:45;;;;;;;;;;;-5.30;99.90;;;;;;5033128;28;19913;-72
2022/03/10 06:04:11;;;;;;;;;;;-5.30;99.90;;;;;;5033163;28;19913;-71
2022/03/10 06:06:36;;;;;;;;;;;-5.30;99.90;;;;;;5033356;28;19909;-71
2022/03/10 06:09:02;;;;;;;;;;;-5.40;99.90;;;;;;5033266;28;19975;-71
2022/03/10 06:11:27;;;;;;;;;;;-5.40;99.90;;;;;;5043039;28;19909;-72
2022/03/10 06:13:54;;;;;;;;;;;-5.50;99.90;;;;;;5046354;28;19917;-71
2022/03/10 06:16:19;;;;;;;;;;;-5.40;99.90;;;;;;5033052;28;19917;-71
2022/03/10 06:18:45;;;;;;;;;;;-5.20;99.90;;;;;;5042334;28;19908;-72
2022/03/10 06:21:11;;;;;;;;;;;-5.20;99.90;;;;;;5052231;28;19909;-71
2022/03/10 06:23:36;;;;;;;;;;;-5.10;99.90;;;;;;5051861;28;19913;-71
2022/03/10 06:26:02;;;;;;;;;;;-5.00;99.90;;;;;;5052238;28;19920;-71
2022/03/10 06:28:27;;;;;;;;;;;-4.90;99.90;;;;;;5052010;28;20617;-71
2022/03/10 06:30:53;;;;;;;;;;;-4.90;99.90;;;;;;5052475;28;20372;-72
2022/03/10 06:33:18;;;;;;;;;;;-4.70;99.90;;;;;;5050876;28;20416;-72
2022/03/10 06:35:44;;;;;;;;;;;-4.50;99.90;;;;;;5051524;28;19909;-71
2022/03/10 06:38:10;;;;;;;;;;;-4.50;99.90;;;;;;5051537;28;20011;-71
2022/03/10 06:40:35;;;;;;;;;;;-4.60;99.90;;;;;;5047926;28;20439;-71
2022/03/10 06:43:01;;;;;;;;;;;-4.70;99.90;;;;;;5035853;28;20414;-71
2022/03/10 06:45:26;;;;;;;;;;;-4.70;99.90;;;;;;5043679;28;19918;-72
2022/03/10 06:47:52;;;;;;;;;;;-4.60;99.90;;;;;;5032231;28;19920;-72
2022/03/10 06:50:17;;;;;;;;;;;-4.50;99.90;;;;;;5032388;28;19916;-72
2022/03/10 06:52:43;;;;;;;;;;;-4.40;99.90;;;;;;5032255;28;19952;-71
2022/03/10 06:55:08;;;;;;;;;;;-4.20;99.90;;;;;;5031906;28;19909;-71
2022/03/10 06:57:34;;;;;;;;;;;-4.10;99.90;;;;;;5051355;28;19976;-71
2022/03/10 07:00:00;;;;;;;;;;;-4.10;99.90;;;;;;5050875;28;19908;-71
2022/03/10 07:02:26;;;;;;;;;;;-4.10;99.90;;;;;;5050697;28;19913;-71
2022/03/10 07:04:51;;;;;;;;;;;-3.80;99.90;;;;;;5050824;28;19915;-71
2022/03/10 07:07:17;;;;;;;;;;;-3.50;99.90;;;;;;5051149;28;19908;-71
2022/03/10 07:09:43;;;;;;;;;;;-3.30;99.90;;;;;;5051045;28;19920;-71
2022/03/10 07:12:09;;;;;;;;;;;-3.10;99.90;;;;;;5039721;28;19932;-71
2022/03/10 07:14:35;;;;;;;;;;;-3.00;99.90;;;;;;5034202;28;20362;-72
2022/03/10 07:17:00;;;;;;;;;;;-2.90;99.90;;;;;;5030391;28;20384;-72
2022/03/10 07:19:26;;;;;;;;;;;-2.80;99.90;;;;;;5031800;28;19909;-72
2022/03/10 07:21:51;;;;;;;;;;;-2.70;99.90;;;;;;5031720;28;19946;-72
2022/03/10 07:24:17;;;;;;;;;;;-2.60;99.90;;;;;;5031599;28;19913;-71
2022/03/10 07:26:43;;;;;;;;;;;-2.30;99.90;;;;;;5031846;28;20301;-71
2022/03/10 07:29:08;;;;;;;;;;;-2.10;99.90;;;;;;5031683;28;20050;-71
2022/03/10 07:31:34;;;;;;;;;;;-2.00;99.90;;;;;;5031486;28;19910;-71
2022/03/10 07:33:59;;;;;;;;;;;-1.80;99.90;;;;;;5031523;28;19916;-72
2022/03/10 07:36:25;;;;;;;;;;;-1.60;99.90;;;;;;5032994;28;20301;-72
2022/03/10 07:38:50;;;;;;;;;;;-1.30;99.50;;;;;;5043776;28;19909;-71
2022/03/10 07:41:16;;;;;;;;;;;-1.20;99.00;;;;;;5045480;28;19913;-71
2022/03/10 07:43:41;;;;;;;;;;;-1.00;98.30;;;;;;5049027;28;19916;-71
2022/03/10 07:46:07;;;;;;;;;;;-0.90;97.90;;;;;;5037237;28;19915;-72
2022/03/10 07:48:33;;;;;;;;;;;-0.70;97.60;;;;;;5034667;28;19909;-71
2022/03/10 07:50:59;;;;;;;;;;;-0.40;96.70;;;;;;5035598;28;19915;-72
2022/03/10 07:53:24;;;;;;;;;;;-0.30;96.20;;;;;;5035195;28;19909;-72
2022/03/10 07:55:54;;;;;;;;;;;-0.10;96.00;;;;;;5035499;28;19909;-71
2022/03/10 07:58:22;;;;;;;;;;;0.10;95.70;;;;;;5036090;28;20374;-72
2022/03/10 08:00:48;;;;;;;;;;;0.20;95.00;;;;;;5047371;28;19931;-73
2022/03/10 08:03:14;;;;;;;;;;;0.30;94.20;;;;;;5044007;28;20382;-73
2022/03/10 08:05:39;;;;;;;;;;;0.50;93.40;;;;;;5035931;28;20328;-72
2022/03/10 08:08:05;;;;;;;;;;;0.80;93.20;;;;;;5033278;28;19909;-72
2022/03/10 08:10:30;;;;;;;;;;;1.20;92.60;;;;;;5038358;28;19916;-72
2022/03/10 08:12:56;;;;;;;;;;;1.60;91.90;;;;;;5041603;28;19916;-72
2022/03/10 08:15:22;;;;;;;;;;;2.50;91.30;;;;;;5044084;28;20007;-73
2022/03/10 08:17:47;;;;;;;;;;;5.80;82.80;;;;;;5052268;28;20443;-73
2022/03/10 08:20:13;;;;;;;;;;;7.60;72.50;;;;;;5052454;28;20357;-73
2022/03/10 08:22:39;;;;;;;;;;;9.20;65.30;;;;;;5052462;28;19912;-73
2022/03/10 08:25:05;;;;;;;;;;;10.10;59.60;;;;;;5052819;28;19984;-73
2022/03/10 08:27:30;;;;;;;;;;;10.60;58.00;;;;;;5045263;28;19908;-73
2022/03/10 08:29:56;;;;;;;;;;;10.90;56.40;;;;;;5040774;28;19909;-73
2022/03/10 08:32:25;;;;;;;;;;;11.30;55.60;;;;;;5048460;28;19915;-73
2022/03/10 08:34:51;;;;;;;;;;;11.80;54.60;;;;;;5036761;28;20415;-73
2022/03/10 08:37:18;;;;;;;;;;;12.20;55.50;;;;;;5043158;28;19909;-73
2022/03/10 08:39:44;;;;;;;;;;;13.10;54.00;;;;;;5037640;28;20286;-73
2022/03/10 08:42:09;;;;;;;;;;;13.70;52.90;;;;;;5050590;28;19919;-73
2022/03/10 08:44:35;;;;;;;;;;;14.00;51.20;;;;;;5051901;28;19999;-73
2022/03/10 08:47:00;;;;;;;;;;;14.00;51.60;;;;;;5052148;28;20083;-73
2022/03/10 08:49:26;;;;;;;;;;;14.20;52.10;;;;;;5051639;28;19908;-73
2022/03/10 08:51:51;;;;;;;;;;;14.80;48.80;;;;;;5034926;28;19960;-73
2022/03/10 08:54:17;;;;;;;;;;;14.90;46.70;;;;;;5032851;28;19909;-73
2022/03/10 08:56:42;;;;;;;;;;;15.70;47.30;;;;;;5032104;28;20378;-73
2022/03/10 08:59:08;;;;;;;;;;;15.70;47.10;;;;;;5032411;28;19919;-73
2022/03/10 09:01:33;;;;;;;;;;;16.00;46.50;;;;;;5033775;28;19934;-73
2022/03/10 09:03:59;;;;;;;;;;;15.90;46.30;;;;;;5049083;28;19935;-73
2022/03/10 09:06:24;;;;;;;;;;;16.70;45.60;;;;;;5037258;28;19908;-74
2022/03/10 09:08:50;;;;;;;;;;;16.70;45.50;;;;;;5040101;28;20200;-73
2022/03/10 09:11:16;;;;;;;;;;;16.60;44.00;;;;;;5037246;28;19917;-74
2022/03/10 09:13:48;;;;;;;;;;;17.10;41.80;;;;;;5042206;28;19916;-73
2022/03/10 09:16:14;;;;;;;;;;;17.20;41.00;;;;;;5030114;28;20386;-73
2022/03/10 09:18:41;;;;;;;;;;;17.90;41.00;;;;;;5030141;28;20417;-74
2022/03/10 09:21:07;;;;;;;;;;;18.60;41.30;;;;;;5031588;28;19909;-72
2022/03/10 09:23:32;;;;;;;;;;;19.00;40.30;;;;;;5030686;28;19917;-72
2022/03/10 09:25:58;;;;;;;;;;;18.40;41.40;;;;;;5031764;28;19909;-72
2022/03/10 09:28:23;;;;;;;;;;;19.00;39.90;;;;;;5033030;28;19909;-73
2022/03/10 09:30:49;;;;;;;;;;;19.30;39.30;;;;;;5033577;28;19932;-73
2022/03/10 09:33:14;;;;;;;;;;;19.40;39.50;;;;;;5033509;28;19992;-72
2022/03/10 09:35:40;;;;;;;;;;;19.60;39.20;;;;;;5032444;28;20355;-72
2022/03/10 09:38:05;;;;;;;;;;;19.70;38.20;;;;;;5039032;28;19916;-72
2022/03/10 09:40:31;;;;;;;;;;;18.70;39.50;;;;;;5039321;28;19924;-72
2022/03/10 09:42:57;;;;;;;;;;;20.10;39.10;;;;;;5033351;28;19917;-73
2022/03/10 09:45:22;;;;;;;;;;;20.00;37.90;;;;;;5033747;28;19952;-72
2022/03/10 09:47:48;;;;;;;;;;;17.80;38.50;;;;;;5033606;28;20362;-72
2022/03/10 09:50:15;;;;;;;;;;;19.00;40.70;;;;;;5043041;28;19909;-72
2022/03/10 09:52:42;;;;;;;;;;;20.00;37.00;;;;;;5035306;28;20413;-72
2022/03/10 09:55:07;;;;;;;;;;;19.90;38.20;;;;;;5033274;28;19916;-72
2022/03/10 09:57:35;;;;;;;;;;;20.90;37.40;;;;;;5033486;28;19913;-72
2022/03/10 10:00:01;;;;;;;;;;;20.70;35.90;;;;;;5033413;28;20012;-72
2022/03/10 10:02:29;;;;;;;;;;;20.90;36.00;;;;;;5033345;28;19913;-72
2022/03/10 10:04:56;;;;;;;;;;;21.20;36.50;;;;;;5033120;28;19909;-72
2022/03/10 10:07:25;;;;;;;;;;;20.50;36.90;;;;;;5033330;28;20332;-72
2022/03/10 10:09:54;;;;;;;;;;;21.20;35.90;;;;;;5031287;28;19909;-72
2022/03/10 10:12:22;;;;;;;;;;;21.20;35.90;;;;;;5032118;28;19916;-72
2022/03/10 10:14:48;;;;;;;;;;;21.50;34.20;;;;;;5038372;28;19909;-72
2022/03/10 10:17:14;;;;;;;;;;;21.70;33.20;;;;;;5045830;28;20465;-72
2022/03/10 10:19:40;;;;;;;;;;;22.50;32.30;;;;;;5049288;28;20439;-73
2022/03/10 10:22:20;;;;;;;;;;;21.10;33.50;;;;;;5045289;28;20288;-73
2022/03/10 10:24:49;;;;;;;;;;;22.60;34.10;;;;;;5045976;28;20384;-73
2022/03/10 10:27:19;;;;;;;;;;;22.80;33.60;;;;;;5051928;28;19916;-73
2022/03/10 10:29:45;;;;;;;;;;;21.70;34.00;;;;;;5051658;28;20389;-73
2022/03/10 10:32:11;;;;;;;;;;;20.90;33.70;;;;;;5052158;28;20344;-73
2022/03/10 10:34:36;;;;;;;;;;;22.00;32.60;;;;;;5053731;28;19916;-73
2022/03/10 10:37:02;;;;;;;;;;;22.40;31.80;;;;;;5052911;28;19920;-72
2022/03/10 10:39:27;;;;;;;;;;;22.30;33.40;;;;;;5052518;28;20377;-73
2022/03/10 10:41:53;;;;;;;;;;;21.80;33.00;;;;;;5052477;28;19913;-72
2022/03/10 10:44:20;;;;;;;;;;;20.40;34.20;;;;;;5052326;28;20350;-73
2022/03/10 10:46:48;;;;;;;;;;;21.10;34.20;;;;;;5052919;28;20360;-73
2022/03/10 10:49:22;;;;;;;;;;;21.80;34.10;;;;;;5036499;28;20336;-73
2022/03/10 10:51:49;;;;;;;;;;;22.50;32.50;;;;;;5044722;28;19930;-73
2022/03/10 10:54:23;;;;;;;;;;;20.40;34.70;;;;;;5043928;28;20281;-73
2022/03/10 10:56:50;;;;;;;;;;;22.10;32.60;;;;;;5032825;28;19909;-73
2022/03/10 10:59:45;;;;;;;;;;;24.40;31.10;;;;;;5032785;28;20003;-73
2022/03/10 11:02:17;;;;;;;;;;;22.80;32.80;;;;;;5045534;28;19917;-73
2022/03/10 11:04:43;;;;;;;;;;;21.60;33.60;;;;;;5051425;28;19913;-73
2022/03/10 11:07:09;;;;;;;;;;;23.20;31.80;;;;;;5051849;28;19909;-73
2022/03/10 11:09:35;;;;;;;;;;;22.40;31.00;;;;;;5051614;28;19934;-73
2022/03/10 11:12:01;;;;;;;;;;;21.30;32.70;;;;;;5051790;28;19909;-73
2022/03/10 11:14:27;;;;;;;;;;;22.60;32.20;;;;;;5051361;28;20419;-73
2022/03/10 11:16:53;;;;;;;;;;;22.30;30.80;;;;;;5051277;28;20420;-73
2022/03/10 11:19:25;;;;;;;;;;;21.40;32.40;;;;;;5050980;28;19915;-72
2022/03/10 11:22:09;;;;;;;;;;;22.90;31.60;;;;;;5037819;28;19909;-73
2022/03/10 11:24:41;;;;;;;;;;;20.80;31.80;;;;;;5046211;28;19954;-73
2022/03/10 11:27:09;;;;;;;;;;;21.50;32.90;;;;;;5051658;28;19913;-73
2022/03/10 11:29:35;;;;;;;;;;;20.10;33.10;;;;;;5052000;28;19908;-73
2022/03/10 11:32:03;;;;;;;;;;;22.60;31.70;;;;;;5051014;28;20341;-73
2022/03/10 11:34:45;;;;;;;;;;;22.30;30.90;;;;;;5051336;28;19909;-74
2022/03/10 11:37:11;;;;;;;;;;;22.80;31.40;;;;;;5052081;28;19931;-73
2022/03/10 11:39:53;;;;;;;;;;;22.90;30.00;;;;;;5051999;28;19916;-73
2022/03/10 11:42:24;;;;;;;;;;;23.50;30.90;;;;;;5051487;28;19913;-74
2022/03/10 11:45:04;;;;;;;;;;;24.00;29.10;;;;;;5051279;28;19909;-73
2022/03/10 11:47:29;;;;;;;;;;;23.70;29.60;;;;;;5051838;28;19963;-74
2022/03/10 11:49:55;;;;;;;;;;;23.70;28.80;;;;;;5047794;28;19912;-74
2022/03/10 11:52:22;;;;;;;;;;;22.60;30.00;;;;;;5046813;28;19979;-74
2022/03/10 11:55:06;;;;;;;;;;;23.30;30.40;;;;;;5032126;28;19909;-74
2022/03/10 11:57:42;;;;;;;;;;;22.20;30.40;;;;;;5032263;28;20324;-73
2022/03/10 12:00:07;;;;;;;;;;;21.10;30.60;;;;;;5032258;28;19916;-74
2022/03/10 12:02:40;;;;;;;;;;;17.70;34.80;;;;;;5032206;28;19914;-75
2022/03/10 12:05:07;;;;;;;;;;;15.40;37.10;;;;;;5031977;28;19909;-73
2022/03/10 12:07:33;;;;;;;;;;;15.00;39.60;;;;;;5032224;28;19920;-73
2022/03/10 12:10:09;;;;;;;;;;;14.50;39.40;;;;;;5031911;28;19909;-73
2022/03/10 12:12:39;;;;;;;;;;;14.00;39.20;;;;;;5032037;28;19909;-73
2022/03/10 12:15:23;;;;;;;;;;;13.40;41.10;;;;;;5043302;28;20277;-73
2022/03/10 12:17:50;;;;;;;;;;;13.50;41.20;;;;;;5051206;28;19916;-73
2022/03/10 12:20:16;;;;;;;;;;;13.10;40.90;;;;;;5041631;28;20377;-74
2022/03/10 12:23:01;;;;;;;;;;;12.90;41.60;;;;;;5048220;28;20381;-73
2022/03/10 12:25:27;;;;;;;;;;;12.80;41.40;;;;;;5031189;28;19913;-73
2022/03/10 12:27:53;;;;;;;;;;;12.80;41.90;;;;;;5031357;28;19913;-73
2022/03/10 12:30:20;;;;;;;;;;;12.80;42.30;;;;;;5031491;28;19913;-73
2022/03/10 12:32:48;;;;;;;;;;;12.80;41.70;;;;;;5033666;28;19909;-74
2022/03/10 12:35:13;;;;;;;;;;;12.70;41.70;;;;;;5034872;28;19963;-73
2022/03/10 12:37:45;;;;;;;;;;;12.70;40.80;;;;;;5034861;28;19913;-73
2022/03/10 12:40:16;;;;;;;;;;;12.60;41.60;;;;;;5034940;28;19962;-73
2022/03/10 12:42:41;;;;;;;;;;;12.80;41.30;;;;;;5039474;28;19914;-73
2022/03/10 12:45:07;;;;;;;;;;;12.80;42.20;;;;;;5035616;28;19916;-73
2022/03/10 12:47:33;;;;;;;;;;;12.90;41.80;;;;;;5034935;28;19913;-73
2022/03/10 12:49:59;;;;;;;;;;;13.10;40.50;;;;;;5034872;28;19991;-73
2022/03/10 12:52:27;;;;;;;;;;;12.80;40.40;;;;;;5035012;28;19915;-73
2022/03/10 12:54:55;;;;;;;;;;;13.00;41.10;;;;;;5034542;28;19912;-73
2022/03/10 12:57:20;;;;;;;;;;;12.80;41.00;;;;;;5034830;28;20003;-73
2022/03/10 12:59:45;;;;;;;;;;;12.80;40.30;;;;;;5036388;28;19951;-73
2022/03/10 13:02:18;;;;;;;;;;;12.80;41.80;;;;;;5034917;28;20384;-73
2022/03/10 13:04:51;;;;;;;;;;;13.00;39.90;;;;;;5044336;28;19981;-73
2022/03/10 13:07:17;;;;;;;;;;;12.60;40.60;;;;;;5035587;28;20317;-74
2022/03/10 13:09:55;;;;;;;;;;;12.70;41.00;;;;;;5034012;28;20004;-73
2022/03/10 13:12:27;;;;;;;;;;;12.80;41.00;;;;;;5051383;28;19953;-73
2022/03/10 13:14:53;;;;;;;;;;;12.90;39.90;;;;;;5038696;28;19921;-73
2022/03/10 13:17:38;;;;;;;;;;;12.90;39.70;;;;;;5035022;28;19917;-73
2022/03/10 13:20:12;;;;;;;;;;;12.70;42.70;;;;;;5049094;28;20392;-73
2022/03/10 13:22:43;;;;;;;;;;;12.60;42.30;;;;;;5054081;28;19912;-72
2022/03/10 13:25:10;;;;;;;;;;;12.80;40.80;;;;;;5054007;28;19916;-73
2022/03/10 13:27:35;;;;;;;;;;;12.60;43.40;;;;;;5054050;28;19917;-73
2022/03/10 13:30:01;;;;;;;;;;;12.40;42.10;;;;;;5053850;28;20006;-73
2022/03/10 13:32:32;;;;;;;;;;;12.20;42.70;;;;;;5053932;28;19955;-73
2022/03/10 13:35:03;;;;;;;;;;;12.40;43.10;;;;;;5053908;28;20388;-73
2022/03/10 13:37:29;;;;;;;;;;;12.80;40.50;;;;;;5053840;28;19978;-72
2022/03/10 13:39:55;;;;;;;;;;;12.70;40.70;;;;;;5053858;28;19940;-73
2022/03/10 13:42:26;;;;;;;;;;;12.40;40.00;;;;;;5045545;28;19967;-73
2022/03/10 13:45:03;;;;;;;;;;;12.30;41.20;;;;;;5048898;28;19909;-74
2022/03/10 13:47:28;;;;;;;;;;;12.20;41.30;;;;;;5033728;28;19947;-73
2022/03/10 13:49:57;;;;;;;;;;;12.40;41.90;;;;;;5035240;28;20370;-73
2022/03/10 13:52:22;;;;;;;;;;;12.40;41.30;;;;;;5042923;28;19913;-73
2022/03/10 13:54:49;;;;;;;;;;;12.40;41.70;;;;;;5034417;28;19909;-73
2022/03/10 13:57:15;;;;;;;;;;;12.20;42.10;;;;;;5031618;28;19910;-72
2022/03/10 13:59:41;;;;;;;;;;;12.10;42.20;;;;;;5033264;28;19916;-73
2022/03/10 14:02:25;;;;;;;;;;;12.20;42.90;;;;;;5031548;28;19917;-73
2022/03/10 14:04:54;;;;;;;;;;;12.40;42.80;;;;;;5051736;28;19916;-72
2022/03/10 14:07:20;;;;;;;;;;;12.20;43.00;;;;;;5050762;28;19913;-72
2022/03/10 14:09:48;;;;;;;;;;;12.20;42.60;;;;;;5049634;28;19991;-72
2022/03/10 14:12:22;;;;;;;;;;;12.20;42.30;;;;;;5040833;28;19910;-72
2022/03/10 14:14:49;;;;;;;;;;;12.10;42.90;;;;;;5038618;28;20599;-72
2022/03/10 14:17:15;;;;;;;;;;;12.20;43.00;;;;;;5032777;28;20409;-72
2022/03/10 14:19:41;;;;;;;;;;;12.10;42.10;;;;;;5032630;28;19956;-73
2022/03/10 14:22:17;;;;;;;;;;;12.20;42.40;;;;;;5032219;28;19975;-73